Time;durP1;ratioP1;P1;durP2;ratioP2;P2;SDS_P1;SDS_P2;PMS_P1;PMS_P2;Temp;Humidity;BMP_temperature;BMP_pressure;BME280_temperature;BME280_humidity;BME280_pressure;Samples;Min_cycle;Max_cycle;Signal;HPM_P1;HPM_P2
2022/09/06 00:01:06;;;;;;;2.25;1.00;;;24.10;55.80;;;;;;5113151;28;20088;-66
2022/09/06 00:03:31;;;;;;;1.63;1.30;;;24.10;55.80;;;;;;5112949;28;20119;-66
2022/09/06 00:05:57;;;;;;;1.45;1.15;;;24.10;55.80;;;;;;5112702;28;20177;-66
2022/09/06 00:08:23;;;;;;;1.33;0.98;;;24.10;55.80;;;;;;5114100;28;20039;-67
2022/09/06 00:10:56;;;;;;;2.13;1.00;;;24.10;55.80;;;;;;5112938;28;20451;-66
2022/09/06 00:13:22;;;;;;;1.40;1.27;;;24.10;55.80;;;;;;5112796;28;20122;-66
2022/09/06 00:15:48;;;;;;;1.33;1.00;;;24.10;55.80;;;;;;5112461;28;20173;-66
2022/09/06 00:18:13;;;;;;;1.00;0.82;;;24.10;55.80;;;;;;5112875;28;20043;-67
2022/09/06 00:20:40;;;;;;;1.85;1.33;;;24.10;55.90;;;;;;5113611;28;20114;-66
2022/09/06 00:23:06;;;;;;;1.48;0.93;;;24.10;55.90;;;;;;5113782;28;20050;-67
2022/09/06 00:25:33;;;;;;;1.67;1.00;;;24.10;55.80;;;;;;5113722;27;20031;-66
2022/09/06 00:28:02;;;;;;;1.02;0.90;;;24.10;55.80;;;;;;5113848;28;20360;-66
2022/09/06 00:30:29;;;;;;;1.23;1.00;;;24.10;55.80;;;;;;5112524;28;20043;-67
2022/09/06 00:32:55;;;;;;;1.40;1.00;;;24.10;55.80;;;;;;5113587;27;20062;-66
2022/09/06 00:35:23;;;;;;;1.73;1.20;;;24.10;55.90;;;;;;5112184;28;20085;-66
2022/09/06 00:37:50;;;;;;;1.20;1.00;;;24.10;55.90;;;;;;5113730;28;20365;-66
2022/09/06 00:40:16;;;;;;;1.80;1.08;;;24.10;55.90;;;;;;5113570;28;20031;-66
2022/09/06 00:42:41;;;;;;;1.10;1.00;;;24.10;55.80;;;;;;5112482;28;20032;-66
2022/09/06 00:45:09;;;;;;;1.65;0.90;;;24.10;55.90;;;;;;5112100;28;20539;-66
2022/09/06 00:47:37;;;;;;;1.55;1.10;;;24.10;55.90;;;;;;5112319;28;20114;-66
2022/09/06 00:50:04;;;;;;;1.40;1.30;;;24.10;55.90;;;;;;5112216;28;20380;-66
2022/09/06 00:52:32;;;;;;;1.30;1.00;;;24.00;55.80;;;;;;5113263;28;20039;-67
2022/09/06 00:54:58;;;;;;;1.02;0.93;;;24.10;55.90;;;;;;5111582;28;20126;-66
2022/09/06 00:57:26;;;;;;;1.13;0.90;;;24.10;55.90;;;;;;5112089;28;20398;-67
2022/09/06 00:59:53;;;;;;;1.58;1.10;;;24.00;55.80;;;;;;5111825;28;20035;-67
2022/09/06 01:02:19;;;;;;;1.23;1.10;;;24.00;55.80;;;;;;5111676;28;20043;-66
2022/09/06 01:04:47;;;;;;;1.58;0.93;;;24.00;55.80;;;;;;5111957;28;20127;-66
2022/09/06 01:30:13;;;;;;;1.42;0.95;;;23.90;55.90;;;;;;5130284;27;20383;-66
2022/09/06 01:38:04;;;;;;;1.20;1.10;;;23.90;55.90;;;;;;5130432;27;20357;-66
2022/09/06 01:40:34;;;;;;;1.60;1.10;;;23.90;55.90;;;;;;5128964;28;20135;-67
2022/09/06 01:43:00;;;;;;;2.20;0.98;;;23.90;56.00;;;;;;5128903;27;20052;-67
2022/09/06 01:45:40;;;;;;;1.83;1.27;;;23.90;55.90;;;;;;5128898;28;20137;-66
2022/09/06 01:59:37;;;;;;;1.52;0.95;;;23.90;56.00;;;;;;5152846;27;1162004;-66
2022/09/06 02:02:25;;;;;;;1.55;1.08;;;23.90;56.00;;;;;;5153404;27;20078;-66
2022/09/06 02:05:00;;;;;;;1.08;0.95;;;23.90;56.00;;;;;;5153218;27;20394;-66
2022/09/06 02:07:28;;;;;;;1.25;0.90;;;23.90;56.00;;;;;;5153416;27;20427;-66
2022/09/06 02:10:00;;;;;;;1.02;0.93;;;23.90;56.10;;;;;;5152837;27;20125;-66
2022/09/06 02:12:29;;;;;;;1.15;1.00;;;23.90;56.10;;;;;;5152958;27;20043;-66
2022/09/06 02:15:03;;;;;;;1.88;1.13;;;23.90;56.10;;;;;;5171482;27;20562;-66
2022/09/06 02:17:32;;;;;;;1.50;1.35;;;23.90;56.00;;;;;;5152800;27;20048;-66
2022/09/06 02:20:07;;;;;;;2.42;1.08;;;23.90;56.10;;;;;;5152764;27;20094;-67
2022/09/06 02:22:38;;;;;;;1.25;1.10;;;23.90;56.10;;;;;;5171384;27;20189;-66
2022/09/06 02:25:08;;;;;;;1.58;1.48;;;23.80;56.00;;;;;;5152870;27;20109;-66
2022/09/06 02:27:33;;;;;;;1.27;1.02;;;23.90;56.10;;;;;;5171498;27;20042;-66
2022/09/06 02:30:01;;;;;;;1.35;1.25;;;23.90;56.10;;;;;;5152739;27;20370;-66
2022/09/06 02:32:29;;;;;;;1.77;1.30;;;23.90;56.10;;;;;;5152524;27;20042;-66
2022/09/06 02:34:56;;;;;;;1.35;1.25;;;23.90;56.10;;;;;;5171125;27;20456;-66
2022/09/06 02:37:25;;;;;;;1.95;1.33;;;23.90;56.10;;;;;;5152379;27;20470;-66
2022/09/06 02:39:54;;;;;;;1.27;1.17;;;23.80;56.00;;;;;;5152448;27;20031;-66
2022/09/06 02:42:20;;;;;;;1.20;1.10;;;23.80;56.10;;;;;;5152370;27;20062;-66
2022/09/06 02:44:45;;;;;;;1.65;1.45;;;23.80;56.10;;;;;;5152286;27;20034;-66
2022/09/06 02:47:11;;;;;;;1.60;1.20;;;23.80;56.10;;;;;;5170929;27;20034;-66
2022/09/06 02:49:36;;;;;;;1.88;1.33;;;23.80;56.10;;;;;;5152630;27;20078;-66
2022/09/06 02:52:02;;;;;;;1.17;1.08;;;23.80;56.10;;;;;;5152284;27;20140;-66
2022/09/06 02:54:28;;;;;;;1.92;1.33;;;23.80;56.10;;;;;;5152374;27;20121;-66
2022/09/06 02:56:54;;;;;;;1.42;1.20;;;23.80;56.10;;;;;;5170957;27;20486;-66
2022/09/06 02:59:19;;;;;;;1.80;1.67;;;23.80;56.10;;;;;;5151676;27;20058;-66
2022/09/06 03:01:45;;;;;;;1.23;1.13;;;23.80;56.10;;;;;;5152043;27;20078;-66
2022/09/06 03:04:11;;;;;;;1.38;1.27;;;23.80;56.10;;;;;;5170543;27;20061;-66
2022/09/06 03:06:36;;;;;;;1.10;0.90;;;23.80;56.10;;;;;;5152028;27;20081;-66
2022/09/06 03:09:02;;;;;;;1.23;1.13;;;23.70;56.10;;;;;;5165428;27;20173;-66
2022/09/06 03:11:28;;;;;;;1.40;1.30;;;23.70;56.00;;;;;;5138086;27;20035;-66
2022/09/06 03:13:53;;;;;;;1.15;1.02;;;23.80;56.10;;;;;;5137906;27;20478;-66
2022/09/06 03:16:19;;;;;;;1.50;1.35;;;23.70;56.00;;;;;;5138085;27;20047;-66
2022/09/06 03:18:45;;;;;;;1.63;1.23;;;23.70;56.00;;;;;;5137785;27;20042;-66
2022/09/06 03:21:12;;;;;;;1.88;1.50;;;23.70;56.00;;;;;;5156277;27;20050;-66
2022/09/06 03:23:38;;;;;;;1.77;1.40;;;23.70;56.00;;;;;;5137988;27;20049;-66
2022/09/06 03:26:05;;;;;;;1.40;1.15;;;23.70;56.00;;;;;;5156262;27;20030;-66
2022/09/06 03:28:31;;;;;;;1.45;1.00;;;23.70;56.10;;;;;;5137781;27;20038;-66
2022/09/06 03:30:56;;;;;;;1.17;1.08;;;23.70;56.10;;;;;;5134085;27;20154;-66
2022/09/06 03:33:22;;;;;;;2.15;1.58;;;23.70;56.00;;;;;;5135460;27;20103;-66
2022/09/06 03:35:52;;;;;;;1.58;1.42;;;23.70;56.00;;;;;;5117077;27;20054;-67
2022/09/06 03:38:17;;;;;;;1.65;1.20;;;23.70;56.10;;;;;;5135578;27;20428;-66
2022/09/06 03:40:45;;;;;;;1.67;1.58;;;23.70;56.80;;;;;;5116838;27;20042;-66
2022/09/06 03:43:11;;;;;;;2.17;1.25;;;23.70;56.10;;;;;;5116923;27;20046;-66
2022/09/06 03:45:37;;;;;;;1.55;1.45;;;23.70;56.00;;;;;;5100029;27;20478;-66
2022/09/06 03:48:02;;;;;;;1.98;1.35;;;23.70;56.10;;;;;;5116930;27;20039;-66
2022/09/06 03:50:28;;;;;;;1.42;1.23;;;23.70;56.00;;;;;;5116850;27;20466;-66
2022/09/06 03:52:54;;;;;;;1.77;1.48;;;23.70;56.00;;;;;;5133664;27;20046;-66
2022/09/06 03:55:19;;;;;;;2.40;1.38;;;23.70;56.00;;;;;;5135149;27;20038;-66
2022/09/06 03:57:45;;;;;;;1.52;1.15;;;23.70;56.00;;;;;;5116481;27;20551;-66
2022/09/06 04:00:11;;;;;;;1.77;1.42;;;23.60;56.00;;;;;;5116504;27;20498;-66
2022/09/06 04:02:37;;;;;;;1.27;1.17;;;23.70;56.00;;;;;;5116226;27;20096;-66
2022/09/06 04:05:03;;;;;;;1.17;1.08;;;23.60;56.00;;;;;;5134765;27;20038;-66
2022/09/06 04:07:29;;;;;;;2.38;1.27;;;23.60;56.00;;;;;;5116186;27;20054;-66
2022/09/06 04:09:54;;;;;;;2.05;1.30;;;23.70;56.00;;;;;;5133709;27;20039;-66
2022/09/06 04:12:20;;;;;;;1.38;1.27;;;23.70;56.00;;;;;;5116189;27;20501;-66
2022/09/06 04:14:45;;;;;;;1.50;1.40;;;23.70;56.00;;;;;;5116445;27;20131;-66
2022/09/06 04:17:13;;;;;;;1.45;1.35;;;23.70;56.00;;;;;;5134401;27;20517;-66
2022/09/06 04:19:38;;;;;;;1.83;1.00;;;23.70;56.00;;;;;;5116424;27;20061;-66
2022/09/06 04:22:04;;;;;;;1.38;1.17;;;23.60;56.00;;;;;;5114906;27;20035;-67
2022/09/06 04:24:29;;;;;;;1.60;1.50;;;23.60;56.00;;;;;;5115937;27;20035;-66
2022/09/06 04:26:55;;;;;;;1.83;1.73;;;23.60;56.00;;;;;;5134564;27;20042;-66
2022/09/06 04:29:21;;;;;;;1.60;1.50;;;23.60;56.00;;;;;;5115821;27;20444;-66
2022/09/06 04:31:46;;;;;;;2.33;1.80;;;23.60;56.00;;;;;;5151644;27;20113;-66
2022/09/06 04:34:12;;;;;;;1.52;1.33;;;23.60;56.00;;;;;;5136309;27;20389;-66
2022/09/06 04:36:37;;;;;;;1.40;1.30;;;23.60;56.00;;;;;;5136269;27;20039;-66
2022/09/06 04:39:04;;;;;;;1.40;1.30;;;23.60;56.00;;;;;;5119071;27;20102;-66
2022/09/06 04:41:29;;;;;;;1.45;1.35;;;23.60;56.00;;;;;;5136181;27;20039;-66
2022/09/06 04:43:55;;;;;;;1.60;1.50;;;23.60;56.00;;;;;;5154714;27;20034;-66
2022/09/06 04:46:24;;;;;;;1.70;1.40;;;23.60;56.00;;;;;;5154780;27;20050;-66
2022/09/06 04:48:51;;;;;;;1.23;1.13;;;23.60;56.00;;;;;;5154581;27;20058;-66
2022/09/06 04:51:17;;;;;;;1.38;1.27;;;23.60;56.00;;;;;;5154620;27;20402;-66
2022/09/06 04:53:44;;;;;;;1.35;1.25;;;23.60;56.00;;;;;;5135933;27;20035;-66
2022/09/06 04:56:19;;;;;;;1.60;1.50;;;23.60;56.00;;;;;;5154925;27;20525;-66
2022/09/06 04:58:47;;;;;;;1.83;1.73;;;23.60;56.10;;;;;;5154144;27;20413;-66
2022/09/06 05:01:12;;;;;;;1.73;1.52;;;23.60;56.10;;;;;;5135848;27;20129;-67
2022/09/06 05:03:38;;;;;;;1.58;1.30;;;23.60;56.10;;;;;;5154180;27;20118;-66
2022/09/06 05:06:07;;;;;;;2.03;1.60;;;23.60;56.10;;;;;;5154189;27;20063;-67
2022/09/06 05:08:34;;;;;;;1.52;1.42;;;23.60;56.10;;;;;;5135987;27;20072;-67
2022/09/06 05:11:00;;;;;;;2.25;1.48;;;23.50;56.10;;;;;;5135564;27;20554;-67
2022/09/06 05:13:26;;;;;;;1.65;1.42;;;23.50;56.10;;;;;;5136132;27;20442;-67
2022/09/06 05:15:51;;;;;;;1.77;1.40;;;23.50;56.10;;;;;;5135858;27;20038;-67
2022/09/06 05:18:17;;;;;;;1.52;1.25;;;23.50;56.10;;;;;;5135691;27;20402;-67
2022/09/06 05:20:42;;;;;;;2.10;1.60;;;23.50;56.10;;;;;;5135409;27;20504;-67
2022/09/06 05:23:08;;;;;;;1.50;1.40;;;23.60;56.20;;;;;;5135511;27;20170;-67
2022/09/06 05:25:34;;;;;;;1.58;1.48;;;23.50;57.00;;;;;;5154126;27;20106;-67
2022/09/06 05:27:59;;;;;;;2.40;1.30;;;23.50;56.20;;;;;;5135395;27;20043;-68
2022/09/06 05:30:25;;;;;;;1.50;1.40;;;23.50;56.20;;;;;;5131823;27;20035;-66
2022/09/06 05:32:50;;;;;;;2.63;2.22;;;23.50;56.30;;;;;;5144391;27;20034;-77
2022/09/06 05:35:16;;;;;;;3.10;1.58;;;23.60;56.50;;;;;;5152359;27;20154;-68
2022/09/06 05:37:41;;;;;;;2.60;2.10;;;23.50;56.60;;;;;;5151559;27;20027;-68
2022/09/06 05:40:08;;;;;;;2.03;1.92;;;23.50;56.60;;;;;;5149756;27;20394;-68
2022/09/06 05:42:33;;;;;;;2.78;1.52;;;23.60;56.70;;;;;;5148093;27;20037;-68
2022/09/06 05:45:00;;;;;;;2.33;2.13;;;23.60;56.60;;;;;;5131409;27;20038;-68
2022/09/06 05:47:26;;;;;;;2.20;2.00;;;23.60;56.70;;;;;;5130971;27;20156;-66
2022/09/06 05:49:52;;;;;;;2.25;2.05;;;23.60;56.80;;;;;;5131405;27;20125;-67
2022/09/06 05:52:18;;;;;;;4.30;2.70;;;23.50;57.00;;;;;;5131169;27;20058;-71
2022/09/06 05:54:44;;;;;;;7.28;3.58;;;23.50;57.20;;;;;;5137400;27;20051;-68
2022/09/06 05:57:09;;;;;;;7.78;4.15;;;23.50;57.70;;;;;;5116698;27;20505;-67
2022/09/06 05:59:35;;;;;;;3.63;3.33;;;23.50;58.20;;;;;;5109559;28;20043;-67
2022/09/06 06:02:01;;;;;;;4.35;3.90;;;23.50;58.50;;;;;;5134582;27;20039;-67
2022/09/06 06:04:26;;;;;;;5.13;4.63;;;23.50;58.70;;;;;;5128421;27;20484;-67
2022/09/06 06:06:52;;;;;;;6.32;4.50;;;23.40;59.00;;;;;;5129379;27;20035;-68
2022/09/06 06:09:17;;;;;;;4.65;4.25;;;23.40;59.30;;;;;;5127570;27;20042;-67
2022/09/06 06:11:43;;;;;;;6.13;4.38;;;23.40;59.40;;;;;;5142582;27;20035;-67
2022/09/06 06:14:09;;;;;;;4.68;4.35;;;23.40;59.50;;;;;;5109250;27;20111;-67
2022/09/06 06:16:34;;;;;;;5.20;4.70;;;23.40;59.70;;;;;;5114166;27;20091;-67
2022/09/06 06:19:00;;;;;;;10.75;4.70;;;23.40;59.80;;;;;;5119062;27;20031;-67
2022/09/06 06:21:28;;;;;;;4.75;4.43;;;23.40;59.90;;;;;;5120171;27;20051;-66
2022/09/06 06:23:57;;;;;;;4.45;4.00;;;23.40;60.00;;;;;;5129789;27;20102;-67
2022/09/06 06:26:23;;;;;;;6.35;4.78;;;23.40;60.10;;;;;;5115983;27;20046;-69
2022/09/06 06:28:49;;;;;;;4.65;4.28;;;23.40;60.20;;;;;;5136124;27;20046;-68
2022/09/06 06:31:15;;;;;;;5.07;4.68;;;23.40;60.30;;;;;;5114384;27;20035;-66
2022/09/06 06:33:41;;;;;;;6.18;4.85;;;23.40;60.40;;;;;;5118553;27;20045;-67
2022/09/06 06:38:54;;;;;;;7.50;4.38;;;23.40;60.50;;;;;;5099532;27;1854407;-66
2022/09/06 06:41:22;;;;;;;4.85;4.45;;;23.50;60.70;;;;;;5118017;27;20043;-66
2022/09/06 06:43:52;;;;;;;6.65;4.68;;;23.50;60.80;;;;;;5119227;27;20503;-68
2022/09/06 06:46:18;;;;;;;8.50;4.37;;;23.50;60.90;;;;;;5119664;27;20047;-69
2022/09/06 06:48:45;;;;;;;8.15;5.05;;;23.50;60.80;;;;;;5118641;27;20295;-72
2022/09/06 06:51:14;;;;;;;5.78;5.28;;;23.50;61.00;;;;;;5119786;27;20035;-70
2022/09/06 06:53:40;;;;;;;8.40;4.97;;;23.60;61.10;;;;;;5100457;27;20109;-70
2022/09/06 06:56:27;;;;;;;8.63;4.80;;;23.60;61.20;;;;;;5136368;27;20131;-72
2022/09/06 06:58:56;;;;;;;10.68;5.47;;;23.70;61.60;;;;;;5134905;27;20051;-69
2022/09/06 07:01:23;;;;;;;5.95;5.35;;;23.80;61.50;;;;;;5118757;27;20035;-70
2022/09/06 07:03:49;;;;;;;7.20;5.72;;;23.80;61.40;;;;;;5136782;27;20499;-71
2022/09/06 07:06:16;;;;;;;6.35;5.72;;;23.80;61.40;;;;;;5120385;27;20074;-71
2022/09/06 07:08:42;;;;;;;9.77;5.82;;;23.90;61.40;;;;;;5122277;27;20061;-72
2022/09/06 07:11:10;;;;;;;7.47;5.78;;;23.90;61.30;;;;;;5117772;27;20031;-73
2022/09/06 07:13:36;;;;;;;7.45;5.75;;;23.90;61.40;;;;;;5136442;27;20126;-77
2022/09/06 07:16:22;;;;;;;8.23;5.47;;;23.90;61.40;;;;;;5135649;27;20040;-74
2022/09/06 07:18:52;;;;;;;6.57;5.80;;;23.90;61.20;;;;;;5118523;27;20066;-73
2022/09/06 07:21:25;;;;;;;8.63;5.90;;;23.90;61.20;;;;;;5119274;27;20119;-69
2022/09/06 07:23:51;;;;;;;6.75;6.07;;;24.00;61.20;;;;;;5119753;27;20035;-71
2022/09/06 07:26:19;;;;;;;8.60;6.55;;;24.00;61.20;;;;;;5133717;27;20043;-73
2022/09/06 07:28:46;;;;;;;7.05;6.40;;;24.00;61.20;;;;;;5115002;27;20042;-71
2022/09/06 07:31:13;;;;;;;7.85;6.90;;;24.00;61.20;;;;;;5119460;27;20121;-70
2022/09/06 07:33:39;;;;;;;8.07;7.32;;;24.00;61.20;;;;;;5135139;27;20035;-70
2022/09/06 07:36:07;;;;;;;7.57;6.97;;;24.10;61.30;;;;;;5135804;27;20102;-70
2022/09/06 07:38:34;;;;;;;8.10;7.30;;;24.10;61.30;;;;;;5132502;27;20117;-70
2022/09/06 07:41:02;;;;;;;14.55;6.93;;;24.10;61.40;;;;;;5135956;27;20398;-74
2022/09/06 07:43:28;;;;;;;13.88;7.03;;;24.10;61.40;;;;;;5135082;27;20039;-80
2022/09/06 07:46:05;;;;;;;9.50;7.18;;;24.10;61.30;;;;;;5121181;27;20529;-72
2022/09/06 07:48:32;;;;;;;7.57;6.95;;;24.10;61.30;;;;;;5111262;27;20508;-70
2022/09/06 07:51:15;;;;;;;7.85;7.13;;;24.10;61.20;;;;;;5123727;27;20062;-71
2022/09/06 07:53:43;;;;;;;11.02;7.97;;;24.00;61.20;;;;;;5123316;27;20142;-72
2022/09/06 07:56:11;;;;;;;10.10;7.10;;;24.10;61.20;;;;;;5120954;27;20043;-69
2022/09/06 07:58:38;;;;;;;9.57;7.03;;;24.10;61.30;;;;;;5107685;27;20597;-71
2022/09/06 08:01:26;;;;;;;8.75;6.82;;;24.10;61.30;;;;;;5106400;27;20146;-73
2022/09/06 08:03:52;;;;;;;8.13;7.43;;;24.10;61.40;;;;;;5100488;27;20047;-73
2022/09/06 08:06:19;;;;;;;6.90;6.22;;;24.10;61.30;;;;;;5101282;27;20043;-70
2022/09/06 08:08:45;;;;;;;7.25;6.50;;;24.10;61.40;;;;;;5117995;27;20572;-71
2022/09/06 08:11:11;;;;;;;9.05;6.57;;;24.10;61.40;;;;;;5121254;27;20039;-73
2022/09/06 08:13:37;;;;;;;7.85;6.18;;;24.10;61.50;;;;;;5123360;27;20150;-72
2022/09/06 08:16:05;;;;;;;9.95;6.32;;;24.10;61.50;;;;;;5105299;27;20563;-72
2022/09/06 08:18:31;;;;;;;6.47;5.93;;;24.10;61.70;;;;;;5102028;27;20053;-69
2022/09/06 08:21:06;;;;;;;7.47;6.70;;;24.10;61.80;;;;;;5104373;27;20047;-70
2022/09/06 08:23:31;;;;;;;7.10;6.45;;;24.10;61.90;;;;;;5107265;27;20039;-71
2022/09/06 08:25:58;;;;;;;9.05;7.38;;;24.10;61.90;;;;;;5107531;27;20508;-72
2022/09/06 08:28:24;;;;;;;6.28;5.78;;;24.10;62.60;;;;;;5118968;27;20060;-72
2022/09/06 08:30:50;;;;;;;7.05;6.45;;;24.10;61.80;;;;;;5120742;27;20046;-70
2022/09/06 08:33:19;;;;;;;8.43;6.70;;;24.10;61.80;;;;;;5086506;27;20043;-70
2022/09/06 08:35:55;;;;;;;11.15;6.32;;;24.20;61.80;;;;;;5121589;27;20050;-71
2022/09/06 08:38:21;;;;;;;6.25;5.75;;;24.20;61.90;;;;;;5116743;27;20043;-69
2022/09/06 08:40:47;;;;;;;7.25;5.65;;;24.10;61.70;;;;;;5105253;27;20058;-68
2022/09/06 08:43:18;;;;;;;6.32;5.80;;;24.10;61.80;;;;;;5121205;27;20031;-69
2022/09/06 08:45:46;;;;;;;5.70;4.68;;;24.10;61.80;;;;;;5123725;27;20600;-67
2022/09/06 08:48:12;;;;;;;6.35;5.05;;;24.10;61.70;;;;;;5099884;27;20096;-71
2022/09/06 08:50:44;;;;;;;8.90;5.15;;;24.10;61.80;;;;;;5098088;27;20046;-70
2022/09/06 08:53:17;;;;;;;8.35;5.07;;;24.00;61.70;;;;;;5116941;27;20358;-70
2022/09/06 09:01:31;;;;;;;5.18;4.30;;;24.10;61.70;;;;;;5062626;27;20408;-67
2022/09/06 09:04:00;;;;;;;6.78;4.68;;;24.00;61.60;;;;;;5050408;28;20048;-70
2022/09/06 09:06:27;;;;;;;4.30;4.00;;;24.00;61.60;;;;;;5054766;28;20053;-69
2022/09/06 09:09:13;;;;;;;5.97;4.63;;;24.00;61.50;;;;;;5039868;28;20503;-69
2022/09/06 09:11:44;;;;;;;11.52;5.28;;;24.10;61.80;;;;;;5043070;28;20118;-70
2022/09/06 09:14:34;;;;;;;5.00;4.50;;;24.10;61.90;;;;;;5053369;28;20059;-71
2022/09/06 09:17:05;;;;;;;4.97;4.47;;;24.10;62.20;;;;;;5035915;28;20720;-66
2022/09/06 09:19:35;;;;;;;6.00;5.18;;;24.10;62.10;;;;;;5053140;28;20037;-68
2022/09/06 09:22:01;;;;;;;5.78;4.53;;;24.10;62.10;;;;;;5037496;28;20041;-67
2022/09/06 09:24:26;;;;;;;5.88;5.28;;;24.10;62.10;;;;;;5050520;28;20033;-66
2022/09/06 09:27:10;;;;;;;6.72;4.25;;;24.10;62.30;;;;;;5034226;28;20053;-66
2022/09/06 09:29:57;;;;;;;5.55;4.55;;;24.10;62.50;;;;;;5048690;28;20049;-68
2022/09/06 09:32:43;;;;;;;6.80;4.25;;;24.10;62.90;;;;;;5037791;28;20118;-68
2022/09/06 09:35:32;;;;;;;6.32;4.40;;;24.10;62.80;;;;;;5028223;28;20110;-69
2022/09/06 09:41:01;;;;;;;4.97;4.30;;;24.10;62.90;;;;;;5075926;27;20448;-66
2022/09/06 09:43:31;;;;;;;9.40;4.13;;;24.20;63.20;;;;;;5058904;28;20051;-68
2022/09/06 09:52:06;;;;;;;11.00;5.05;;;24.20;63.30;;;;;;5112153;27;20409;-69
2022/09/06 09:54:39;;;;;;;6.50;4.03;;;24.30;63.40;;;;;;5142378;27;20043;-69
2022/09/06 09:57:08;;;;;;;6.13;4.40;;;24.30;63.30;;;;;;5117080;27;20066;-67
2022/09/06 10:05:01;;;;;;;10.82;4.80;;;24.50;63.00;;;;;;5098771;27;20895;-68
2022/09/06 10:07:27;;;;;;;8.80;4.85;;;24.50;62.90;;;;;;5113070;27;20054;-69
2022/09/06 10:10:13;;;;;;;5.80;4.93;;;24.50;62.70;;;;;;5097690;28;20435;-69
2022/09/06 10:12:41;;;;;;;5.80;4.35;;;24.50;62.80;;;;;;5100316;28;20035;-69
2022/09/06 10:15:10;;;;;;;6.43;4.57;;;24.50;62.60;;;;;;5098098;28;20055;-70
2022/09/06 10:20:17;;;;;;;6.43;4.88;;;24.60;62.80;;;;;;5113593;27;20458;-72
2022/09/06 10:23:23;;;;;;;5.88;5.30;;;24.60;62.70;;;;;;5107686;27;20052;-71
2022/09/06 10:26:03;;;;;;;9.02;4.60;;;24.70;62.60;;;;;;5110524;27;20028;-69
2022/09/06 10:36:43;;;;;;;4.75;4.35;;;24.70;62.40;;;;;;5099661;27;20828;-65
2022/09/06 10:39:48;;;;;;;4.63;3.30;;;24.70;62.00;;;;;;5088561;28;20058;-65
2022/09/06 10:48:03;;;;;;;3.63;2.70;;;24.70;61.70;;;;;;5075984;27;20987;-69
2022/09/06 10:51:08;;;;;;;4.78;2.90;;;24.70;61.60;;;;;;5055365;28;20044;-70
2022/09/06 10:53:57;;;;;;;3.00;2.53;;;24.70;61.50;;;;;;5058791;28;20059;-68
2022/09/06 10:56:48;;;;;;;6.13;2.63;;;24.80;61.70;;;;;;5073422;28;20421;-69
2022/09/06 10:59:37;;;;;;;3.90;2.88;;;24.80;61.60;;;;;;5056938;28;20051;-69
2022/09/06 11:02:43;;;;;;;3.35;2.80;;;24.80;61.60;;;;;;5058716;28;20059;-77
2022/09/06 11:05:14;;;;;;;4.75;2.83;;;24.80;61.70;;;;;;5056695;28;20055;-74
2022/09/06 11:07:43;;;;;;;5.30;3.08;;;24.80;61.70;;;;;;5059403;28;20032;-74
2022/09/06 11:10:30;;;;;;;5.50;2.40;;;24.80;62.50;;;;;;5058393;28;20122;-69
2022/09/06 11:16:00;;;;;;;7.78;3.00;;;24.80;61.70;;;;;;5098330;27;20430;-68
2022/09/06 11:18:50;;;;;;;10.98;3.38;;;24.80;61.80;;;;;;5070448;28;20047;-66
2022/09/06 11:30:04;;;;;;;5.22;2.70;;;25.00;61.70;;;;;;5101866;27;20434;-73
2022/09/06 11:32:37;;;;;;;1.95;1.80;;;25.10;60.80;;;;;;5081562;28;20421;-66
2022/09/06 11:35:08;;;;;;;4.70;1.98;;;25.20;60.60;;;;;;5098547;28;20051;-66
2022/09/06 11:37:39;;;;;;;4.45;2.60;;;25.20;60.30;;;;;;5082290;28;20044;-67
2022/09/06 11:45:44;;;;;;;3.90;1.88;;;25.20;60.00;;;;;;5107279;27;20327;-67
2022/09/06 11:48:34;;;;;;;3.47;2.03;;;25.20;59.50;;;;;;5087694;28;20453;-74
2022/09/06 11:54:03;;;;;;;2.63;2.17;;;25.30;59.70;;;;;;5089769;27;20498;-68
2022/09/06 11:56:35;;;;;;;4.43;2.25;;;25.30;59.40;;;;;;5111521;27;20389;-72
2022/09/06 11:59:10;;;;;;;4.30;2.25;;;25.30;59.50;;;;;;5110001;27;20570;-73
2022/09/06 12:01:37;;;;;;;3.67;2.00;;;25.30;59.50;;;;;;5081240;28;20040;-73
2022/09/06 12:04:05;;;;;;;4.50;1.85;;;25.30;59.70;;;;;;5075138;28;20043;-69
2022/09/06 12:06:37;;;;;;;3.33;2.10;;;25.30;59.80;;;;;;5101031;27;20068;-68
2022/09/06 12:09:39;;;;;;;3.03;2.03;;;25.30;59.90;;;;;;5077497;28;20870;-74
2022/09/06 12:12:06;;;;;;;5.18;1.60;;;25.20;59.90;;;;;;5067544;28;20049;-77
2022/09/06 12:14:39;;;;;;;3.75;2.05;;;25.20;59.90;;;;;;5081933;28;20096;-70
2022/09/06 12:25:18;;;;;;;2.75;2.05;;;25.30;60.10;;;;;;5069835;27;20407;-69
2022/09/06 12:30:43;;;;;;;4.15;1.80;;;25.30;60.20;;;;;;5071366;27;20081;-67
2022/09/06 12:33:30;;;;;;;2.83;1.50;;;25.30;60.00;;;;;;5069814;28;20505;-66
2022/09/06 12:38:56;;;;;;;2.45;1.52;;;25.40;59.40;;;;;;5090662;27;20109;-67
2022/09/06 12:41:24;;;;;;;4.35;1.50;;;25.40;59.50;;;;;;5078729;28;20056;-70
2022/09/06 12:43:50;;;;;;;14.32;2.00;;;25.40;59.40;;;;;;5078110;28;20040;-70
2022/09/06 12:46:16;;;;;;;6.72;1.70;;;25.40;59.40;;;;;;5078368;28;20036;-68
2022/09/06 12:48:57;;;;;;;6.32;1.83;;;25.50;59.50;;;;;;5078970;28;20058;-69
2022/09/06 12:51:25;;;;;;;21.75;3.72;;;25.50;59.60;;;;;;5079989;28;20068;-70
2022/09/06 12:53:53;;;;;;;4.07;1.63;;;25.50;59.60;;;;;;5095139;28;20399;-78
2022/09/06 12:56:21;;;;;;;12.60;2.55;;;25.50;59.70;;;;;;5063047;28;20055;-66
2022/09/06 12:58:47;;;;;;;9.48;2.30;;;25.50;59.90;;;;;;5068420;28;20048;-70
2022/09/06 13:06:38;;;;;;;3.88;1.50;;;25.60;60.00;;;;;;5063670;27;20896;-67
2022/09/06 13:09:07;;;;;;;8.07;1.55;;;25.60;59.80;;;;;;5058640;28;20057;-67
2022/09/06 13:11:37;;;;;;;4.50;1.67;;;25.60;60.00;;;;;;5076946;28;20053;-67
2022/09/06 13:14:11;;;;;;;;;;;25.60;58.40;;;;;;5060746;28;20060;-67
2022/09/06 13:16:43;;;;;;;4.30;0.90;;;25.60;57.70;;;;;;5061637;28;19998;-65
2022/09/06 13:21:50;;;;;;;1.85;0.98;;;25.70;57.30;;;;;;5109225;27;20363;-65
2022/09/06 13:24:21;;;;;;;2.22;1.08;;;25.70;56.70;;;;;;5120880;28;20604;-66
2022/09/06 13:26:48;;;;;;;2.38;0.90;;;25.70;56.10;;;;;;5117072;28;20390;-66
2022/09/06 13:31:58;;;;;;;1.98;0.95;;;25.70;55.90;;;;;;5122793;27;20407;-66
2022/09/06 13:37:07;;;;;;;0.95;0.70;;;25.70;55.20;;;;;;5068479;28;20431;-66
2022/09/06 13:39:37;;;;;;;2.42;0.80;;;25.70;54.50;;;;;;5067104;28;20060;-66
2022/09/06 13:44:44;;;;;;;3.35;0.88;;;25.80;54.80;;;;;;5123794;27;20357;-66
2022/09/06 13:47:09;;;;;;;1.63;0.60;;;25.80;54.70;;;;;;5123717;28;20043;-69
2022/09/06 13:49:35;;;;;;;1.38;0.90;;;25.80;54.70;;;;;;5125086;28;20036;-69
2022/09/06 13:52:02;;;;;;;1.40;0.77;;;25.80;55.00;;;;;;5121866;28;20043;-66
2022/09/06 13:54:29;;;;;;;3.45;0.65;;;25.80;55.10;;;;;;5120084;28;20126;-67
2022/09/06 13:56:55;;;;;;;3.58;1.08;;;25.80;55.00;;;;;;5121091;27;20050;-68
2022/09/06 13:59:21;;;;;;;1.20;0.60;;;25.80;54.70;;;;;;5121011;28;20035;-68
2022/09/06 14:01:54;;;;;;;3.53;1.00;;;25.80;54.40;;;;;;5120126;28;20080;-71
2022/09/06 14:04:20;;;;;;;3.95;0.88;;;25.80;54.40;;;;;;5119991;28;20047;-70
2022/09/06 14:06:47;;;;;;;3.22;1.20;;;25.80;54.50;;;;;;5122494;28;20712;-70
2022/09/06 14:09:13;;;;;;;2.58;0.98;;;25.70;54.60;;;;;;5124445;27;20398;-70
2022/09/06 14:11:38;;;;;;;2.17;1.00;;;25.60;54.70;;;;;;5123115;28;20032;-70
2022/09/06 14:14:04;;;;;;;4.68;0.95;;;25.60;54.80;;;;;;5105157;28;20044;-70
2022/09/06 14:16:32;;;;;;;2.10;0.70;;;25.50;54.90;;;;;;5121597;27;20039;-70
2022/09/06 14:18:57;;;;;;;1.70;1.10;;;25.50;55.00;;;;;;5123374;28;20063;-70
2022/09/06 14:21:23;;;;;;;1.23;0.70;;;25.50;55.20;;;;;;5123341;28;20114;-73
2022/09/06 14:23:50;;;;;;;3.17;0.98;;;25.40;55.30;;;;;;5123922;27;20467;-70
2022/09/06 14:26:17;;;;;;;1.10;0.60;;;25.40;55.40;;;;;;5123102;28;20503;-70
2022/09/06 14:28:43;;;;;;;3.55;0.82;;;25.30;55.50;;;;;;5126031;27;20450;-70
2022/09/06 14:33:48;;;;;;;1.00;0.50;;;25.30;55.60;;;;;;5132204;27;1164014;-70
2022/09/06 14:36:16;;;;;;;1.75;0.80;;;25.30;55.80;;;;;;5143293;27;20058;-70
2022/09/06 14:38:43;;;;;;;2.25;0.93;;;25.20;55.90;;;;;;5136332;27;20049;-70
2022/09/06 14:41:12;;;;;;;2.10;0.90;;;25.20;55.90;;;;;;5128627;27;20042;-70
2022/09/06 14:43:40;;;;;;;2.45;0.90;;;25.20;55.90;;;;;;5138248;27;20026;-70
2022/09/06 14:46:08;;;;;;;2.30;0.80;;;25.20;56.10;;;;;;5148656;27;20478;-70
2022/09/06 14:48:34;;;;;;;2.05;1.10;;;25.20;56.10;;;;;;5167140;27;20035;-70
2022/09/06 14:51:21;;;;;;;1.63;1.17;;;25.20;56.10;;;;;;5161882;27;20035;-69
2022/09/06 14:53:49;;;;;;;1.75;0.57;;;25.20;56.10;;;;;;5128128;27;20050;-70
2022/09/06 14:56:15;;;;;;;2.28;0.98;;;25.10;56.20;;;;;;5150908;27;20482;-70
2022/09/06 14:58:41;;;;;;;1.58;0.60;;;25.10;56.20;;;;;;5167276;27;20053;-70
2022/09/06 15:03:50;;;;;;;4.30;1.33;;;25.10;56.40;;;;;;5085558;27;20385;-69
2022/09/06 15:06:18;;;;;;;1.73;1.25;;;25.10;56.40;;;;;;5080824;28;20067;-69
2022/09/06 15:08:44;;;;;;;1.50;1.00;;;25.10;56.40;;;;;;5083072;28;20361;-69
2022/09/06 15:11:11;;;;;;;1.23;0.73;;;25.10;56.50;;;;;;5085935;28;20050;-69